createdAt,value
2023-12-20T00:01:25.483Z,1.50
2023-12-20T00:03:53.689Z,1.67
2023-12-20T00:06:21.790Z,3.23
2023-12-20T00:08:49.878Z,1.50
2023-12-20T00:11:17.886Z,1.63
2023-12-20T00:13:48.548Z,1.70
2023-12-20T00:16:19.700Z,1.70
2023-12-20T00:18:47.927Z,2.80
2023-12-20T00:21:16.101Z,1.47
2023-12-20T00:23:44.098Z,1.27
2023-12-20T00:26:12.117Z,0.90
2023-12-20T00:28:40.119Z,0.93
2023-12-20T00:31:08.253Z,0.80
2023-12-20T00:33:37.872Z,1.00
2023-12-20T00:36:06.910Z,1.10
2023-12-20T00:38:34.959Z,1.20
2023-12-20T00:41:03.569Z,1.20
2023-12-20T00:43:31.629Z,1.00
2023-12-20T00:46:01.234Z,1.00
2023-12-20T00:48:31.351Z,0.80
2023-12-20T00:51:00.759Z,1.03
2023-12-20T00:53:28.794Z,0.93
2023-12-20T00:55:56.831Z,1.30
2023-12-20T00:58:25.000Z,0.93
2023-12-20T01:00:53.119Z,0.93
2023-12-20T01:03:21.149Z,1.37
2023-12-20T01:05:49.135Z,1.07
2023-12-20T01:08:18.461Z,1.07
2023-12-20T01:10:48.061Z,1.20
2023-12-20T01:13:16.317Z,0.97
2023-12-20T01:15:44.489Z,1.13
2023-12-20T01:18:12.968Z,1.10
2023-12-20T01:20:40.862Z,1.20
2023-12-20T01:23:08.852Z,1.10
2023-12-20T01:25:38.136Z,1.10
2023-12-20T01:28:07.129Z,1.20
2023-12-20T01:30:35.165Z,0.90
2023-12-20T01:33:03.898Z,1.33
2023-12-20T01:35:31.904Z,1.50
2023-12-20T01:37:59.860Z,2.97
2023-12-20T01:40:28.317Z,2.37
2023-12-20T01:43:08.744Z,1.37
2023-12-20T01:45:36.931Z,1.40
2023-12-20T01:48:07.548Z,1.40
2023-12-20T01:50:38.657Z,1.80
2023-12-20T01:53:09.039Z,2.13
2023-12-20T01:55:40.475Z,2.00
2023-12-20T01:58:11.410Z,1.90
2023-12-20T02:00:39.887Z,1.30
2023-12-20T02:03:08.035Z,1.40
2023-12-20T02:05:36.773Z,1.30
2023-12-20T02:08:05.241Z,1.30
2023-12-20T02:10:33.293Z,1.50
2023-12-20T02:13:01.278Z,1.00
2023-12-20T02:15:30.642Z,1.30
2023-12-20T02:17:58.768Z,1.10
2023-12-20T02:20:26.673Z,1.30
2023-12-20T02:22:56.356Z,1.20
2023-12-20T02:25:24.580Z,1.70
2023-12-20T02:27:53.018Z,2.20
2023-12-20T02:30:21.083Z,1.60
2023-12-20T02:32:49.784Z,1.47
2023-12-20T02:35:17.938Z,1.10
2023-12-20T02:37:46.184Z,1.80
2023-12-20T02:40:15.832Z,2.70
2023-12-20T02:42:44.012Z,1.50
2023-12-20T02:45:12.095Z,1.50
2023-12-20T02:47:40.280Z,1.30
2023-12-20T02:50:09.290Z,1.30
2023-12-20T02:52:37.307Z,1.40
2023-12-20T02:55:06.102Z,1.53
2023-12-20T02:57:37.741Z,1.30
2023-12-20T03:00:06.723Z,1.33
2023-12-20T03:02:34.767Z,1.37
2023-12-20T03:05:03.347Z,1.40
2023-12-20T03:07:31.367Z,1.70
2023-12-20T03:10:11.699Z,1.47
2023-12-20T03:12:48.901Z,1.60
2023-12-20T03:15:17.117Z,1.60
2023-12-20T03:17:45.763Z,0.80
2023-12-20T03:20:13.323Z,0.70
2023-12-20T03:22:41.303Z,1.03
2023-12-20T03:25:10.051Z,1.37
2023-12-20T03:27:39.770Z,1.37
2023-12-20T03:30:10.383Z,1.90
2023-12-20T03:32:40.322Z,1.30
2023-12-20T03:35:08.781Z,0.67
2023-12-20T03:37:36.946Z,0.90
2023-12-20T03:40:05.509Z,0.50
2023-12-20T03:42:33.612Z,0.60
2023-12-20T03:45:01.585Z,0.60
2023-12-20T03:47:30.964Z,0.30
2023-12-20T03:49:59.113Z,0.30
2023-12-20T03:52:27.390Z,0.47
2023-12-20T03:54:55.518Z,0.40
2023-12-20T03:57:23.560Z,0.40
2023-12-20T03:59:51.572Z,0.30
2023-12-20T04:02:19.838Z,0.50
2023-12-20T04:04:49.429Z,0.70
2023-12-20T04:07:17.561Z,0.50
2023-12-20T04:09:45.813Z,0.87
2023-12-20T04:12:13.784Z,1.40
2023-12-20T04:14:41.831Z,1.20
2023-12-20T04:17:09.872Z,0.70
2023-12-20T04:19:37.900Z,0.73
2023-12-20T04:22:07.557Z,0.90
2023-12-20T04:24:35.632Z,0.70
2023-12-20T04:27:03.823Z,0.80
2023-12-20T04:29:31.806Z,0.40
2023-12-20T04:31:59.858Z,0.50
2023-12-20T04:34:27.944Z,0.67
2023-12-20T04:36:56.292Z,0.50
2023-12-20T04:39:28.769Z,0.53
2023-12-20T04:41:56.793Z,0.43
2023-12-20T04:44:25.001Z,0.33
2023-12-20T04:46:57.648Z,0.47
2023-12-20T04:49:26.044Z,0.40
2023-12-20T04:51:54.693Z,0.50
2023-12-20T04:54:21.861Z,0.40
2023-12-20T04:56:51.791Z,0.30
2023-12-20T04:59:20.294Z,0.40
2023-12-20T05:01:48.423Z,0.40
2023-12-20T05:04:16.498Z,0.50
2023-12-20T05:06:44.592Z,0.33
2023-12-20T05:09:12.782Z,0.50
2023-12-20T05:11:40.706Z,0.30
2023-12-20T05:14:10.012Z,0.40
2023-12-20T05:16:37.979Z,0.30
2023-12-20T05:19:07.742Z,0.50
2023-12-20T05:21:36.970Z,0.40
2023-12-20T05:24:05.439Z,0.47
2023-12-20T05:26:33.518Z,0.40
2023-12-20T05:29:01.684Z,0.90
2023-12-20T05:31:31.002Z,0.30
2023-12-20T05:33:59.538Z,0.40
2023-12-20T05:36:27.991Z,0.40
2023-12-20T05:38:55.992Z,0.40
2023-12-20T05:41:23.997Z,0.40
2023-12-20T05:43:51.983Z,0.40
2023-12-20T05:46:20.098Z,0.50
2023-12-20T05:48:49.873Z,0.60
2023-12-20T05:51:18.085Z,0.60
2023-12-20T05:53:46.332Z,0.60
2023-12-20T05:56:14.345Z,0.50
2023-12-20T05:58:43.118Z,0.40
2023-12-20T06:01:11.120Z,0.57
2023-12-20T06:03:39.172Z,0.47
2023-12-20T06:06:15.897Z,0.50
2023-12-20T06:08:45.606Z,0.50
2023-12-20T06:11:14.736Z,0.53
2023-12-20T06:13:42.999Z,0.70
2023-12-20T06:16:11.144Z,0.60
2023-12-20T06:18:39.182Z,0.50
2023-12-20T06:21:08.337Z,0.60
2023-12-20T06:23:37.667Z,0.70
2023-12-20T06:26:05.769Z,2.50
2023-12-20T06:28:33.794Z,3.60
2023-12-20T06:31:01.968Z,1.33
2023-12-20T06:33:30.453Z,0.77
2023-12-20T06:35:58.424Z,0.77
2023-12-20T06:38:26.335Z,3.60
2023-12-20T06:40:58.405Z,0.93
2023-12-20T06:43:37.846Z,0.90
2023-12-20T06:46:14.638Z,0.90
2023-12-20T06:48:42.876Z,0.90
2023-12-20T06:51:14.302Z,0.70
2023-12-20T06:53:42.277Z,1.40
2023-12-20T06:56:13.978Z,1.83
2023-12-20T06:58:43.584Z,3.80
2023-12-20T07:01:14.448Z,4.30
2023-12-20T07:03:43.017Z,1.00
2023-12-20T07:06:11.042Z,1.20
2023-12-20T07:08:39.181Z,1.10
2023-12-20T07:11:07.132Z,1.00
2023-12-20T07:13:36.474Z,1.30
2023-12-20T07:16:04.961Z,1.30
2023-12-20T07:18:32.961Z,1.60
2023-12-20T07:21:00.929Z,1.90
2023-12-20T07:23:28.919Z,1.73
2023-12-20T07:25:56.840Z,2.00
2023-12-20T07:28:25.966Z,2.00
2023-12-20T07:30:55.398Z,1.80
2023-12-20T07:33:23.909Z,1.80
2023-12-20T07:35:53.074Z,1.40
2023-12-20T07:38:21.318Z,1.40
2023-12-20T07:40:49.343Z,1.83
2023-12-20T07:43:17.629Z,1.43
2023-12-20T07:45:45.616Z,1.80
2023-12-20T07:48:15.041Z,1.67
2023-12-20T07:50:43.326Z,1.70
2023-12-20T07:53:11.260Z,1.70
2023-12-20T07:55:39.194Z,1.90
2023-12-20T07:58:07.236Z,1.87
2023-12-20T08:00:35.266Z,1.93
2023-12-20T08:03:04.712Z,2.07
2023-12-20T08:05:34.050Z,2.00
2023-12-20T08:08:02.000Z,2.10
2023-12-20T08:10:31.146Z,1.93
2023-12-20T08:12:59.171Z,1.80
2023-12-20T08:15:27.284Z,1.80
2023-12-20T08:17:55.328Z,2.43
2023-12-20T08:20:29.906Z,2.00
2023-12-20T08:23:02.674Z,2.27
2023-12-20T08:25:30.672Z,2.70
2023-12-20T08:27:58.710Z,2.10
2023-12-20T08:30:26.754Z,2.20
2023-12-20T08:32:54.908Z,2.00
2023-12-20T08:35:23.311Z,2.10
2023-12-20T08:37:51.249Z,1.77
2023-12-20T08:40:21.580Z,1.90
2023-12-20T08:42:49.590Z,2.00
2023-12-20T08:45:19.574Z,1.97
2023-12-20T08:47:48.229Z,1.93
2023-12-20T08:50:16.605Z,1.50
2023-12-20T08:52:45.137Z,1.87
2023-12-20T08:55:14.055Z,1.87
2023-12-20T08:57:43.518Z,1.80
2023-12-20T09:00:12.874Z,3.00
2023-12-20T09:02:41.095Z,3.10
2023-12-20T09:05:09.967Z,1.97
2023-12-20T09:07:38.330Z,2.10
2023-12-20T09:10:06.784Z,2.28
2023-12-20T09:12:34.840Z,2.00
2023-12-20T09:15:04.309Z,2.33
2023-12-20T09:17:33.577Z,2.20
2023-12-20T09:20:02.019Z,2.10
2023-12-20T09:22:30.330Z,2.17
2023-12-20T09:24:58.480Z,2.00
2023-12-20T09:27:26.416Z,1.87
2023-12-20T09:29:54.588Z,1.80
2023-12-20T09:32:23.846Z,1.83
2023-12-20T09:34:51.935Z,1.30
2023-12-20T09:37:20.130Z,1.57
2023-12-20T09:39:48.117Z,1.40
2023-12-20T09:42:23.409Z,1.50
2023-12-20T09:44:51.382Z,1.60
2023-12-20T09:47:25.209Z,1.50
2023-12-20T09:49:53.732Z,1.57
2023-12-20T09:52:25.045Z,1.40
2023-12-20T09:54:56.123Z,1.20
2023-12-20T09:57:24.159Z,1.13
2023-12-20T09:59:52.638Z,1.37
2023-12-20T10:02:28.218Z,1.70
2023-12-20T10:04:57.519Z,1.60
2023-12-20T10:07:25.660Z,1.60
2023-12-20T10:09:56.584Z,1.43
2023-12-20T10:12:24.576Z,1.40
2023-12-20T10:14:53.271Z,1.10
2023-12-20T10:17:24.343Z,1.47
2023-12-20T10:19:54.065Z,1.27
2023-12-20T10:22:23.816Z,1.40
2023-12-20T10:24:52.237Z,1.30
2023-12-20T10:27:21.119Z,1.50
2023-12-20T10:29:49.142Z,1.83
2023-12-20T10:32:25.789Z,2.17
2023-12-20T10:34:57.480Z,1.40
2023-12-20T10:37:25.936Z,1.50
2023-12-20T10:39:57.703Z,1.83
2023-12-20T10:42:28.681Z,1.90
2023-12-20T10:44:57.032Z,2.17
2023-12-20T10:47:27.280Z,1.87
2023-12-20T10:49:57.924Z,1.80
2023-12-20T10:52:28.268Z,1.17
2023-12-20T10:54:56.621Z,1.30
2023-12-20T10:57:24.999Z,1.40
2023-12-20T10:59:55.793Z,1.47
2023-12-20T11:02:24.742Z,1.53
2023-12-20T11:04:59.038Z,1.50
2023-12-20T11:07:34.307Z,1.57
2023-12-20T11:10:09.458Z,1.60
2023-12-20T11:12:43.740Z,1.27
2023-12-20T11:15:13.156Z,1.47
2023-12-20T11:17:41.993Z,1.30
2023-12-20T11:20:13.385Z,1.60
2023-12-20T11:22:54.095Z,1.50
2023-12-20T11:25:22.812Z,1.47
2023-12-20T11:28:12.163Z,1.47
2023-12-20T11:30:44.466Z,1.93
2023-12-20T11:33:12.509Z,1.10
2023-12-20T11:35:42.432Z,1.30
2023-12-20T11:38:11.321Z,1.30
2023-12-20T11:40:39.696Z,1.90
2023-12-20T11:43:07.820Z,1.43
2023-12-20T11:45:36.654Z,1.30
2023-12-20T11:48:05.464Z,1.30
2023-12-20T11:50:34.646Z,1.10
2023-12-20T11:53:04.077Z,1.20
2023-12-20T11:55:32.489Z,1.43
2023-12-20T11:58:00.634Z,1.63
2023-12-20T12:00:28.600Z,1.50
2023-12-20T12:03:00.669Z,1.97
2023-12-20T12:05:28.829Z,1.67
2023-12-20T12:07:56.898Z,1.70
2023-12-20T12:10:26.227Z,1.87
2023-12-20T12:12:54.395Z,3.30
2023-12-20T12:15:22.640Z,1.73
2023-12-20T12:17:56.311Z,1.33
2023-12-20T12:20:25.156Z,1.73
2023-12-20T12:23:00.651Z,1.40
2023-12-20T12:25:31.474Z,1.40
2023-12-20T12:28:00.528Z,1.70
2023-12-20T12:30:32.877Z,2.17
2023-12-20T12:33:03.566Z,2.00
2023-12-20T12:35:31.513Z,1.60
2023-12-20T12:38:01.426Z,1.23
2023-12-20T12:40:30.910Z,1.70
2023-12-20T12:42:58.899Z,1.50
2023-12-20T12:45:28.075Z,1.27
2023-12-20T12:47:56.177Z,1.37
2023-12-20T12:50:24.687Z,1.30
2023-12-20T12:52:52.715Z,1.40
2023-12-20T12:55:20.779Z,1.83
2023-12-20T12:57:50.266Z,1.40
2023-12-20T13:00:18.799Z,1.50
2023-12-20T13:02:46.798Z,1.23
2023-12-20T13:05:14.994Z,1.30
2023-12-20T13:07:46.572Z,1.63
2023-12-20T13:10:17.547Z,1.23
2023-12-20T13:12:45.691Z,1.53
2023-12-20T13:15:15.231Z,1.27
2023-12-20T13:17:43.535Z,1.23
2023-12-20T13:20:11.957Z,1.50
2023-12-20T13:22:40.149Z,1.20
2023-12-20T13:25:08.967Z,1.20
2023-12-20T13:27:37.113Z,1.07
2023-12-20T13:30:06.794Z,1.20
2023-12-20T13:32:36.675Z,0.93
2023-12-20T13:35:05.340Z,1.00
2023-12-20T13:37:33.697Z,1.30
2023-12-20T13:40:02.671Z,1.10
2023-12-20T13:42:30.630Z,1.10
2023-12-20T13:44:58.635Z,1.30
2023-12-20T13:47:26.606Z,1.50
2023-12-20T13:49:57.361Z,1.20
2023-12-20T13:52:25.437Z,1.30
2023-12-20T13:54:53.384Z,1.10
2023-12-20T13:57:31.717Z,1.30
2023-12-20T14:00:15.521Z,1.00
2023-12-20T14:02:43.958Z,1.27
2023-12-20T14:05:14.785Z,1.37
2023-12-20T14:07:45.801Z,1.10
2023-12-20T14:10:15.021Z,1.20
2023-12-20T14:12:43.491Z,1.13
2023-12-20T14:15:12.361Z,1.10
2023-12-20T14:17:40.539Z,1.27
2023-12-20T14:20:09.374Z,1.30
2023-12-20T14:22:39.815Z,1.40
2023-12-20T14:25:09.748Z,1.20
2023-12-20T14:27:37.754Z,1.30
2023-12-20T14:30:06.735Z,1.13
2023-12-20T14:32:38.027Z,1.30
2023-12-20T14:35:07.601Z,1.53
2023-12-20T14:37:35.702Z,1.30
2023-12-20T14:40:05.705Z,1.60
2023-12-20T14:42:33.711Z,1.53
2023-12-20T14:45:01.882Z,1.80
2023-12-20T14:47:29.878Z,2.50
2023-12-20T14:49:58.329Z,1.60
2023-12-20T14:52:26.450Z,1.37
2023-12-20T14:54:54.640Z,3.10
2023-12-20T14:57:24.013Z,3.33
2023-12-20T14:59:51.967Z,1.73
2023-12-20T15:02:20.187Z,3.13
2023-12-20T15:04:48.272Z,2.73
2023-12-20T15:07:16.467Z,3.93
2023-12-20T15:09:47.226Z,3.43
2023-12-20T15:12:15.240Z,2.90
2023-12-20T15:14:45.887Z,3.03
2023-12-20T15:17:13.855Z,2.33
2023-12-20T15:19:43.073Z,3.10
2023-12-20T15:22:11.176Z,2.10
2023-12-20T15:24:41.359Z,1.87
2023-12-20T15:27:09.558Z,1.60
2023-12-20T15:29:37.703Z,1.70
2023-12-20T15:32:08.102Z,1.30
2023-12-20T15:34:36.139Z,1.23
2023-12-20T15:37:04.354Z,1.20
2023-12-20T15:39:32.545Z,1.30
2023-12-20T15:42:00.850Z,1.50
2023-12-20T15:44:28.769Z,1.40
2023-12-20T15:46:56.731Z,1.33
2023-12-20T15:49:26.123Z,1.20
2023-12-20T15:51:54.627Z,1.00
2023-12-20T15:54:22.577Z,1.30
2023-12-20T15:56:50.486Z,1.30
2023-12-20T15:59:18.784Z,1.20
2023-12-20T16:01:53.822Z,1.50
2023-12-20T16:04:22.974Z,1.10
2023-12-20T16:06:52.419Z,1.23
2023-12-20T16:09:20.404Z,1.50
2023-12-20T16:11:48.261Z,1.60
2023-12-20T16:14:18.765Z,1.53
2023-12-20T16:16:46.976Z,1.30
2023-12-20T16:19:15.395Z,1.60
2023-12-20T16:21:43.423Z,1.90
2023-12-20T16:24:12.660Z,1.37
2023-12-20T16:26:41.585Z,2.10
2023-12-20T16:29:09.540Z,1.57
2023-12-20T16:31:37.756Z,1.30
2023-12-20T16:34:07.828Z,1.37
2023-12-20T16:36:52.247Z,1.60
2023-12-20T16:39:24.497Z,1.33
2023-12-20T16:41:53.196Z,1.60
2023-12-20T16:44:21.314Z,1.33
2023-12-20T16:46:49.502Z,1.30
2023-12-20T16:49:17.694Z,1.30
2023-12-20T16:51:45.776Z,1.20
2023-12-20T16:54:14.205Z,1.30
2023-12-20T16:56:43.804Z,1.47
2023-12-20T16:59:11.868Z,1.50
2023-12-20T17:01:41.987Z,1.33
2023-12-20T17:04:10.022Z,1.67
2023-12-20T17:06:38.091Z,1.50
2023-12-20T17:09:06.202Z,1.63
2023-12-20T17:11:34.101Z,1.33
2023-12-20T17:14:03.754Z,1.53
2023-12-20T17:16:31.836Z,1.20
2023-12-20T17:18:59.851Z,1.43
2023-12-20T17:21:27.881Z,1.43
2023-12-20T17:23:55.826Z,1.40
2023-12-20T17:26:23.778Z,1.37
2023-12-20T17:28:51.866Z,1.30
2023-12-20T17:31:21.297Z,1.20
2023-12-20T17:33:49.728Z,1.30
2023-12-20T17:36:17.991Z,1.40
2023-12-20T17:38:45.960Z,1.20
2023-12-20T17:41:13.901Z,1.47
2023-12-20T17:43:41.969Z,1.23
2023-12-20T17:46:09.976Z,1.07
2023-12-20T17:48:39.314Z,1.27
2023-12-20T17:51:07.539Z,1.30
2023-12-20T17:53:35.490Z,1.67
2023-12-20T17:56:03.656Z,1.30
2023-12-20T17:58:31.633Z,1.37
2023-12-20T18:00:59.851Z,1.47
2023-12-20T18:03:28.150Z,1.27
2023-12-20T18:05:57.637Z,1.10
2023-12-20T18:08:25.918Z,1.00
2023-12-20T18:10:54.233Z,0.90
2023-12-20T18:13:22.239Z,1.10
2023-12-20T18:15:50.324Z,1.03
2023-12-20T18:18:18.398Z,1.00
2023-12-20T18:20:47.191Z,1.10
2023-12-20T18:23:17.024Z,0.87
2023-12-20T18:25:44.963Z,1.00
2023-12-20T18:28:12.954Z,1.27
2023-12-20T18:30:41.269Z,1.13
2023-12-20T18:33:09.307Z,0.90
2023-12-20T18:35:38.704Z,0.90
2023-12-20T18:38:07.132Z,0.80
2023-12-20T18:40:36.444Z,0.70
2023-12-20T18:43:05.080Z,0.90
2023-12-20T18:45:33.048Z,0.90
2023-12-20T18:48:01.551Z,0.90
2023-12-20T18:50:29.735Z,1.00
2023-12-20T18:52:57.756Z,1.10
2023-12-20T18:55:25.911Z,1.27
2023-12-20T18:57:55.324Z,0.83
2023-12-20T19:00:23.273Z,1.30
2023-12-20T19:02:51.746Z,1.00
2023-12-20T19:05:20.464Z,1.13
2023-12-20T19:07:49.742Z,1.40
2023-12-20T19:10:17.970Z,1.70
2023-12-20T19:12:45.960Z,1.13
2023-12-20T19:15:15.379Z,1.17
2023-12-20T19:17:44.370Z,1.10
2023-12-20T19:20:12.783Z,1.03
2023-12-20T19:22:40.966Z,1.40
2023-12-20T19:25:09.935Z,1.40
2023-12-20T19:27:38.295Z,1.30
2023-12-20T19:30:07.891Z,1.37
2023-12-20T19:32:37.261Z,1.20
2023-12-20T19:35:06.062Z,1.20
2023-12-20T19:37:34.763Z,1.30
2023-12-20T19:40:02.915Z,1.50
2023-12-20T19:42:32.155Z,1.33
2023-12-20T19:45:00.196Z,1.20
2023-12-20T19:47:28.203Z,1.50
2023-12-20T19:49:57.748Z,1.10
2023-12-20T19:52:25.888Z,1.30
2023-12-20T19:54:53.998Z,1.30
2023-12-20T19:57:22.703Z,1.50
2023-12-20T19:59:50.636Z,1.70
2023-12-20T20:02:19.123Z,1.63
2023-12-20T20:04:47.420Z,1.20
2023-12-20T20:07:20.607Z,1.10
2023-12-20T20:09:48.702Z,1.20
2023-12-20T20:12:17.304Z,1.10
2023-12-20T20:14:45.398Z,1.40
2023-12-20T20:17:13.361Z,1.57
2023-12-20T20:19:41.452Z,1.27
2023-12-20T20:22:09.853Z,1.17
2023-12-20T20:24:39.227Z,1.20
2023-12-20T20:27:07.133Z,1.17
2023-12-20T20:29:35.135Z,1.30
2023-12-20T20:32:03.130Z,1.40
2023-12-20T20:34:31.137Z,1.30
2023-12-20T20:36:59.220Z,1.00
2023-12-20T20:39:27.206Z,1.43
2023-12-20T20:41:56.506Z,1.20
2023-12-20T20:44:24.483Z,1.30
2023-12-20T20:46:52.730Z,1.10
2023-12-20T20:49:20.828Z,1.10
2023-12-20T20:51:48.922Z,1.23
2023-12-20T20:54:19.118Z,1.27
2023-12-20T20:56:47.495Z,1.20
2023-12-20T20:59:16.866Z,1.30
2023-12-20T21:01:45.007Z,1.00
2023-12-20T21:04:13.315Z,1.23
2023-12-20T21:06:41.710Z,1.47
2023-12-20T21:09:10.412Z,1.20
2023-12-20T21:11:38.412Z,1.27
2023-12-20T21:14:06.322Z,1.33
2023-12-20T21:16:35.961Z,1.17
2023-12-20T21:19:07.239Z,1.40
2023-12-20T21:21:36.478Z,1.17
2023-12-20T21:24:04.734Z,1.50
2023-12-20T21:26:32.808Z,1.30
2023-12-20T21:29:00.948Z,1.13
2023-12-20T21:31:28.911Z,1.30
2023-12-20T21:33:58.544Z,1.10
2023-12-20T21:36:26.661Z,1.07
2023-12-20T21:38:54.629Z,1.40
2023-12-20T21:41:23.715Z,1.10
2023-12-20T21:43:52.527Z,1.40
2023-12-20T21:46:20.904Z,1.30
2023-12-20T21:48:49.053Z,1.00
2023-12-20T21:51:19.594Z,1.07
2023-12-20T21:53:47.540Z,1.00
2023-12-20T21:56:15.661Z,1.27
2023-12-20T21:58:43.680Z,1.10
2023-12-20T22:01:11.927Z,1.53
2023-12-20T22:03:41.740Z,1.17
2023-12-20T22:06:10.270Z,1.80
2023-12-20T22:08:40.008Z,1.17
2023-12-20T22:11:09.112Z,1.27
2023-12-20T22:13:37.275Z,0.83
2023-12-20T22:16:06.109Z,0.97
2023-12-20T22:18:34.051Z,0.90
2023-12-20T22:21:02.135Z,1.10
2023-12-20T22:23:30.127Z,0.97
2023-12-20T22:25:59.526Z,1.00
2023-12-20T22:28:27.747Z,0.90
2023-12-20T22:30:56.024Z,1.17
2023-12-20T22:33:25.021Z,0.90
2023-12-20T22:35:53.027Z,1.20
2023-12-20T22:38:20.953Z,0.90
2023-12-20T22:40:49.170Z,1.10
2023-12-20T22:43:18.742Z,1.00
2023-12-20T22:45:46.772Z,1.03
2023-12-20T22:48:15.062Z,1.00
2023-12-20T22:50:43.073Z,1.00
2023-12-20T22:53:10.999Z,1.20
2023-12-20T22:55:39.178Z,0.90
2023-12-20T22:58:07.280Z,1.00
2023-12-20T23:00:36.530Z,1.00
2023-12-20T23:03:26.487Z,0.83
2023-12-20T23:06:49.993Z,1.23
2023-12-20T23:09:38.274Z,1.10
2023-12-20T23:12:06.800Z,0.93
2023-12-20T23:14:34.770Z,1.10
2023-12-20T23:17:04.612Z,0.90
2023-12-20T23:19:34.461Z,1.00
2023-12-20T23:22:02.878Z,1.00
2023-12-20T23:24:30.884Z,0.97
2023-12-20T23:26:58.862Z,1.00
2023-12-20T23:29:26.821Z,1.00
2023-12-20T23:31:54.798Z,1.20
2023-12-20T23:34:24.080Z,0.93
2023-12-20T23:36:52.068Z,1.30
2023-12-20T23:39:20.602Z,0.77
2023-12-20T23:41:48.534Z,1.00
2023-12-20T23:44:16.760Z,1.00
2023-12-20T23:46:44.717Z,0.80
2023-12-20T23:49:12.833Z,1.00
2023-12-20T23:51:42.247Z,0.80
2023-12-20T23:54:10.311Z,0.80
2023-12-20T23:56:39.380Z,0.70
2023-12-20T23:59:07.779Z,1.20
